createdAt,value
2022-08-26T00:02:12.698Z,71.83
2022-08-26T00:04:42.266Z,71.52
2022-08-26T00:07:11.179Z,71.08
2022-08-26T00:09:40.346Z,72.08
2022-08-26T00:12:12.464Z,72.47
2022-08-26T00:14:41.662Z,72.78
2022-08-26T00:17:09.916Z,72.64
2022-08-26T00:19:38.171Z,72.79
2022-08-26T00:22:07.541Z,72.84
2022-08-26T00:24:35.519Z,73.37
2022-08-26T00:27:03.536Z,73.45
2022-08-26T00:29:34.904Z,73.92
2022-08-26T00:32:06.849Z,74.10
2022-08-26T00:34:35.307Z,73.88
2022-08-26T00:37:03.553Z,74.16
2022-08-26T00:39:36.364Z,74.29
2022-08-26T00:42:04.304Z,74.45
2022-08-26T00:44:32.278Z,74.49
2022-08-26T00:47:05.137Z,74.07
2022-08-26T00:49:38.703Z,73.53
2022-08-26T00:52:09.913Z,74.21
2022-08-26T00:54:46.727Z,74.04
2022-08-26T00:57:17.238Z,73.55
2022-08-26T00:59:47.782Z,73.72
2022-08-26T01:02:19.918Z,73.88
2022-08-26T01:04:54.410Z,74.71
2022-08-26T01:07:25.672Z,75.62
2022-08-26T01:09:55.581Z,75.89
2022-08-26T01:12:25.151Z,75.33
2022-08-26T01:14:53.914Z,74.22
2022-08-26T01:17:22.179Z,76.00
2022-08-26T01:19:53.796Z,76.48
2022-08-26T01:22:28.208Z,75.82
2022-08-26T01:24:59.970Z,75.89
2022-08-26T01:27:32.638Z,74.95
2022-08-26T01:30:02.680Z,75.55
2022-08-26T01:32:32.819Z,76.02
2022-08-26T01:35:02.379Z,75.76
2022-08-26T01:37:34.905Z,75.95
2022-08-26T01:40:06.828Z,76.30
2022-08-26T01:42:35.826Z,75.05
2022-08-26T01:45:10.131Z,76.50
2022-08-26T01:47:39.462Z,75.91
2022-08-26T01:50:20.066Z,76.39
2022-08-26T01:52:58.436Z,76.88
2022-08-26T01:55:32.410Z,75.64
2022-08-26T01:58:05.714Z,75.04
2022-08-26T02:00:34.859Z,75.33
2022-08-26T02:03:17.971Z,75.99
2022-08-26T02:05:53.622Z,75.79
2022-08-26T02:08:26.872Z,76.12
2022-08-26T02:10:56.655Z,76.54
2022-08-26T02:13:27.314Z,76.75
2022-08-26T02:15:56.437Z,76.17
2022-08-26T02:18:26.309Z,76.39
2022-08-26T02:20:57.018Z,76.66
2022-08-26T02:23:25.460Z,76.09
2022-08-26T02:26:01.029Z,76.43
2022-08-26T02:28:32.651Z,76.60
2022-08-26T02:31:00.663Z,76.36
2022-08-26T02:33:31.468Z,76.61
2022-08-26T02:35:59.345Z,77.36
2022-08-26T02:38:27.730Z,76.52
2022-08-26T02:40:57.179Z,77.76
2022-08-26T02:43:32.647Z,78.25
2022-08-26T02:46:02.287Z,77.94
2022-08-26T02:48:31.137Z,78.86
2022-08-26T02:51:01.797Z,78.16
2022-08-26T02:53:32.046Z,78.20
2022-08-26T02:56:05.665Z,78.48
2022-08-26T02:58:33.616Z,78.13
2022-08-26T03:01:02.409Z,78.06
2022-08-26T03:03:33.847Z,78.62
2022-08-26T03:06:02.063Z,78.50
2022-08-26T03:08:29.968Z,79.06
2022-08-26T03:10:58.651Z,79.37
2022-08-26T03:13:30.847Z,79.84
2022-08-26T03:15:58.985Z,79.41
2022-08-26T03:18:26.917Z,79.59
2022-08-26T03:20:54.884Z,79.39
2022-08-26T03:23:23.412Z,78.38
2022-08-26T03:25:52.376Z,78.51
2022-08-26T03:28:20.670Z,78.52
2022-08-26T03:30:49.352Z,78.18
2022-08-26T03:33:18.000Z,78.10
2022-08-26T03:35:47.860Z,77.75
2022-08-26T03:38:19.795Z,78.55
2022-08-26T03:40:47.804Z,78.44
2022-08-26T03:43:17.196Z,78.31
2022-08-26T03:45:45.988Z,78.52
2022-08-26T03:48:15.640Z,78.06
2022-08-26T03:50:43.522Z,78.89
2022-08-26T03:53:13.241Z,79.10
2022-08-26T03:55:42.247Z,80.28
2022-08-26T03:58:11.933Z,79.54
2022-08-26T04:00:39.911Z,80.32
2022-08-26T04:03:09.929Z,80.84
2022-08-26T04:05:39.635Z,80.73
2022-08-26T04:08:07.837Z,80.44
2022-08-26T04:10:38.925Z,80.17
2022-08-26T04:13:07.340Z,79.57
2022-08-26T04:15:35.422Z,79.62
2022-08-26T04:18:03.367Z,79.64
2022-08-26T04:20:31.921Z,79.37
2022-08-26T04:23:01.369Z,80.10
2022-08-26T04:25:29.493Z,80.08
2022-08-26T04:27:57.414Z,81.07
2022-08-26T04:30:25.366Z,80.58
2022-08-26T04:32:53.569Z,80.34
2022-08-26T04:35:25.587Z,80.24
2022-08-26T04:37:55.447Z,81.33
2022-08-26T04:40:27.509Z,80.48
2022-08-26T04:42:56.413Z,79.60
2022-08-26T04:45:25.274Z,78.89
2022-08-26T04:47:57.294Z,79.93
2022-08-26T04:50:26.948Z,79.52
2022-08-26T04:52:56.152Z,80.60
2022-08-26T04:55:38.201Z,77.97
2022-08-26T04:58:10.375Z,77.79
2022-08-26T05:00:39.824Z,79.20
2022-08-26T05:03:10.548Z,77.62
2022-08-26T05:05:40.988Z,78.20
2022-08-26T05:08:09.439Z,78.78
2022-08-26T05:10:45.847Z,78.28
2022-08-26T05:13:15.682Z,77.95
2022-08-26T05:15:45.035Z,78.42
2022-08-26T05:18:14.176Z,77.57
2022-08-26T05:20:43.752Z,79.24
2022-08-26T05:23:12.888Z,77.85
2022-08-26T05:25:41.934Z,76.98
2022-08-26T05:28:11.519Z,75.66
2022-08-26T05:30:41.049Z,76.17
2022-08-26T05:33:10.169Z,75.74
2022-08-26T05:35:39.179Z,74.57
2022-08-26T05:38:12.400Z,75.18
2022-08-26T05:40:43.236Z,74.29
2022-08-26T05:43:13.463Z,75.70
2022-08-26T05:45:46.325Z,74.82
2022-08-26T05:48:16.087Z,75.42
2022-08-26T05:50:46.633Z,74.42
2022-08-26T05:53:16.400Z,74.54
2022-08-26T05:55:48.225Z,72.68
2022-08-26T05:58:20.207Z,74.43
2022-08-26T06:00:57.139Z,71.99
2022-08-26T06:03:25.087Z,72.28
2022-08-26T06:05:53.024Z,72.03
2022-08-26T06:08:21.234Z,71.73
2022-08-26T06:10:51.013Z,71.49
2022-08-26T06:13:23.706Z,72.43
2022-08-26T06:15:52.699Z,71.93
2022-08-26T06:18:23.484Z,72.34
2022-08-26T06:20:57.223Z,71.07
2022-08-26T06:23:44.574Z,72.14
2022-08-26T06:26:13.287Z,71.52
2022-08-26T06:28:45.603Z,70.71
2022-08-26T06:31:14.322Z,70.71
2022-08-26T06:33:42.502Z,71.18
2022-08-26T06:36:10.643Z,71.16
2022-08-26T06:38:38.577Z,71.07
2022-08-26T06:41:10.435Z,71.42
2022-08-26T06:43:39.179Z,72.14
2022-08-26T06:46:11.824Z,71.46
2022-08-26T06:48:40.554Z,71.10
2022-08-26T06:51:13.094Z,70.33
2022-08-26T06:53:43.110Z,70.20
2022-08-26T06:56:12.189Z,70.96
2022-08-26T06:58:41.235Z,70.02
2022-08-26T07:01:18.694Z,70.59
2022-08-26T07:03:49.079Z,70.18
2022-08-26T07:06:19.369Z,70.87
2022-08-26T07:08:47.331Z,69.18
2022-08-26T07:11:15.566Z,70.26
2022-08-26T07:13:44.808Z,69.18
2022-08-26T07:16:17.709Z,68.31
2022-08-26T07:18:46.939Z,68.95
2022-08-26T07:21:18.203Z,67.82
2022-08-26T07:23:46.913Z,68.21
2022-08-26T07:26:18.031Z,67.74
2022-08-26T07:28:47.297Z,68.21
2022-08-26T07:31:17.739Z,67.56
2022-08-26T07:33:46.337Z,66.83
2022-08-26T07:36:15.827Z,66.95
2022-08-26T07:38:45.203Z,66.95
2022-08-26T07:41:14.257Z,68.87
2022-08-26T07:43:43.666Z,70.06
2022-08-26T07:46:16.472Z,65.54
2022-08-26T07:48:46.400Z,65.08
2022-08-26T07:51:15.432Z,64.42
2022-08-26T07:53:43.416Z,66.15
2022-08-26T07:56:16.622Z,64.31
2022-08-26T07:58:47.676Z,64.96
2022-08-26T08:01:18.455Z,64.21
2022-08-26T08:03:48.096Z,64.54
2022-08-26T08:06:18.806Z,63.87
2022-08-26T08:08:47.694Z,64.04
2022-08-26T08:11:20.698Z,64.52
2022-08-26T08:13:48.843Z,65.52
2022-08-26T08:16:17.185Z,63.69
2022-08-26T08:18:45.761Z,63.52
2022-08-26T08:21:21.389Z,63.57
2022-08-26T08:23:50.574Z,62.77
2022-08-26T08:26:18.551Z,64.23
2022-08-26T08:28:47.946Z,62.20
2022-08-26T08:31:45.036Z,61.43
2022-08-26T08:34:10.963Z,62.81
2022-08-26T08:36:40.269Z,61.06
2022-08-26T08:39:09.530Z,61.05
2022-08-26T08:41:54.071Z,61.86
2022-08-26T08:47:02.387Z,59.48
2022-08-26T08:49:31.622Z,59.42
2022-08-26T08:52:05.918Z,58.51
2022-08-26T08:54:34.128Z,59.51
2022-08-26T08:57:10.304Z,58.97
2022-08-26T08:59:50.882Z,58.71
2022-08-26T09:02:24.075Z,58.33
2022-08-26T09:05:04.518Z,57.04
2022-08-26T09:07:39.210Z,56.99
2022-08-26T09:10:25.658Z,56.18
2022-08-26T09:12:54.058Z,56.70
2022-08-26T09:15:30.223Z,54.55
2022-08-26T09:18:10.914Z,55.06
2022-08-26T09:20:50.835Z,54.41
2022-08-26T09:23:20.193Z,54.21
2022-08-26T09:25:51.051Z,54.97
2022-08-26T09:28:22.388Z,56.87
2022-08-26T09:31:11.686Z,57.61
2022-08-26T09:33:41.230Z,56.11
2022-08-26T09:36:24.804Z,55.91
2022-08-26T09:38:55.180Z,56.39
2022-08-26T09:41:31.693Z,55.91
2022-08-26T09:44:18.237Z,56.00
2022-08-26T09:46:55.303Z,53.58
2022-08-26T09:49:36.431Z,53.12
2022-08-26T09:52:20.968Z,53.05
2022-08-26T09:55:03.438Z,51.25
2022-08-26T09:57:34.610Z,52.29
2022-08-26T10:00:03.026Z,51.40
2022-08-26T10:02:47.673Z,49.12
2022-08-26T10:05:20.130Z,49.34
2022-08-26T10:07:51.189Z,48.90
2022-08-26T10:10:26.209Z,49.71
2022-08-26T10:13:10.649Z,46.04
2022-08-26T10:15:50.632Z,45.86
2022-08-26T10:18:23.669Z,45.03
2022-08-26T10:20:57.921Z,44.13
2022-08-26T10:23:28.497Z,43.64
2022-08-26T10:26:03.900Z,44.25
2022-08-26T10:28:38.764Z,43.04
2022-08-26T10:31:29.587Z,44.13
2022-08-26T10:34:06.625Z,41.73
2022-08-26T10:37:15.610Z,41.33
2022-08-26T10:39:46.174Z,44.70
2022-08-26T10:42:23.093Z,45.31
2022-08-26T10:44:58.410Z,45.60
2022-08-26T10:47:34.132Z,46.58
2022-08-26T12:44:53.862Z,68.28
2022-08-26T12:47:30.982Z,65.90
2022-08-26T12:50:17.407Z,66.40
2022-08-26T12:52:56.530Z,67.06
2022-08-26T12:55:27.860Z,66.41
2022-08-26T12:58:12.711Z,66.82
2022-08-26T13:00:47.373Z,66.79
2022-08-26T13:03:43.819Z,66.27
2022-08-26T13:06:27.844Z,66.53
2022-08-26T13:08:58.134Z,67.69
2022-08-26T13:11:28.211Z,67.09
2022-08-26T13:13:59.988Z,70.15
2022-08-26T13:16:29.837Z,70.68
2022-08-26T13:18:59.829Z,70.87
2022-08-26T13:21:32.017Z,71.77
2022-08-26T13:24:08.861Z,71.60
2022-08-26T13:26:36.773Z,74.14
2022-08-26T13:29:10.057Z,75.50
2022-08-26T13:31:42.034Z,79.33
2022-08-26T13:34:11.753Z,82.04
2022-08-26T13:36:40.174Z,81.77
2022-08-26T13:39:08.238Z,86.66
2022-08-26T13:41:36.321Z,89.61
2022-08-26T13:44:04.881Z,89.82
2022-08-26T13:46:33.082Z,93.58
2022-08-26T13:49:03.004Z,93.35
2022-08-26T13:51:31.807Z,90.52
2022-08-26T13:54:00.137Z,93.31
2022-08-26T13:56:30.385Z,90.76
2022-08-26T13:58:59.430Z,86.94
2022-08-26T14:01:28.286Z,86.89
2022-08-26T14:03:56.290Z,85.86
2022-08-26T14:06:26.093Z,92.64
2022-08-26T14:08:54.025Z,91.58
2022-08-26T14:11:22.371Z,91.02
2022-08-26T14:13:50.381Z,92.83
2022-08-26T14:16:23.378Z,91.40
2022-08-26T14:18:51.485Z,92.10
2022-08-26T14:21:20.584Z,91.37
2022-08-26T14:23:49.868Z,93.03
2022-08-26T14:26:28.658Z,92.88
2022-08-26T14:28:58.027Z,90.69
2022-08-26T14:31:26.894Z,89.43
2022-08-26T14:33:57.693Z,94.14
2022-08-26T14:36:32.630Z,92.51
2022-08-26T14:39:05.128Z,90.37
2022-08-26T14:41:34.351Z,88.73
2022-08-26T14:44:05.228Z,90.77
2022-08-26T14:46:38.435Z,91.35
2022-08-26T14:49:09.866Z,91.13
2022-08-26T14:51:38.759Z,92.75
2022-08-26T14:54:13.189Z,94.03
2022-08-26T14:56:45.095Z,91.46
2022-08-26T14:59:13.598Z,91.98
2022-08-26T15:01:41.579Z,92.34
2022-08-26T15:04:09.537Z,91.00
2022-08-26T15:06:38.144Z,91.66
2022-08-26T15:09:08.119Z,95.20
2022-08-26T15:11:36.191Z,94.92
2022-08-26T15:14:04.653Z,93.77
2022-08-26T15:16:33.448Z,95.72
2022-08-26T15:19:04.210Z,93.68
2022-08-26T15:21:32.320Z,92.10
2022-08-26T15:24:01.305Z,90.29
2022-08-26T15:26:31.822Z,88.17
2022-08-26T15:29:03.098Z,87.57
2022-08-26T15:31:34.069Z,86.39
2022-08-26T15:34:05.017Z,87.49
2022-08-26T15:36:33.770Z,89.95
2022-08-26T15:39:02.440Z,88.21
2022-08-26T15:41:34.808Z,87.08
2022-08-26T15:44:04.989Z,88.88
2022-08-26T15:46:33.832Z,89.19
2022-08-26T15:49:03.538Z,86.71
2022-08-26T15:51:33.697Z,88.64
2022-08-26T15:54:03.519Z,88.13
2022-08-26T15:56:37.479Z,88.46
2022-08-26T15:59:08.649Z,89.62
2022-08-26T16:01:37.108Z,89.73
2022-08-26T16:04:05.792Z,88.40
2022-08-26T16:06:36.972Z,91.27
2022-08-26T16:09:06.266Z,87.46
2022-08-26T16:11:37.338Z,87.32
2022-08-26T16:14:05.947Z,88.50
2022-08-26T16:16:34.075Z,89.68
2022-08-26T16:19:06.841Z,87.92
2022-08-26T16:21:35.654Z,89.17
2022-08-26T16:24:04.474Z,90.73
2022-08-26T16:26:34.889Z,90.64
2022-08-26T16:29:08.729Z,89.40
2022-08-26T16:31:37.203Z,90.41
2022-08-26T16:34:05.952Z,92.23
2022-08-26T16:36:34.911Z,94.74
2022-08-26T16:39:03.804Z,94.32
2022-08-26T16:41:32.637Z,93.94
2022-08-26T16:44:00.979Z,92.85
2022-08-26T16:46:31.008Z,95.54
2022-08-26T16:49:01.509Z,92.98
2022-08-26T16:51:29.751Z,91.83
2022-08-26T16:53:59.851Z,92.78
2022-08-26T16:56:33.416Z,92.89
2022-08-26T16:59:02.266Z,92.98
2022-08-26T17:01:31.675Z,93.67
2022-08-26T17:03:59.641Z,93.20
2022-08-26T17:06:27.681Z,92.49
2022-08-26T17:08:55.611Z,93.30
2022-08-26T17:11:23.523Z,93.32
2022-08-26T17:13:51.539Z,92.96
2022-08-26T17:16:22.221Z,93.57
2022-08-26T17:18:53.897Z,94.05
2022-08-26T17:21:21.807Z,94.27
2022-08-26T17:23:50.069Z,93.82
2022-08-26T17:26:17.990Z,93.64
2022-08-26T17:28:45.923Z,93.47
2022-08-26T17:31:14.657Z,94.69
2022-08-26T17:33:42.798Z,94.66
2022-08-26T17:36:12.417Z,94.28
2022-08-26T17:38:41.384Z,94.08
2022-08-26T17:41:10.454Z,94.06
2022-08-26T17:43:39.055Z,94.92
2022-08-26T17:46:10.046Z,95.34
2022-08-26T17:48:39.366Z,92.98
2022-08-26T17:51:09.279Z,93.43
2022-08-26T17:53:38.516Z,93.92
2022-08-26T17:56:08.858Z,94.09
2022-08-26T17:58:37.260Z,92.25
2022-08-26T18:01:06.265Z,92.81
2022-08-26T18:03:35.327Z,93.03
2022-08-26T18:06:08.629Z,94.20
2022-08-26T18:08:36.761Z,93.89
2022-08-26T18:11:09.188Z,94.25
2022-08-26T18:13:37.367Z,93.55
2022-08-26T18:16:07.081Z,93.65
2022-08-26T18:18:35.619Z,96.95
2022-08-26T18:21:04.274Z,97.30
2022-08-26T18:23:32.181Z,97.71
2022-08-26T18:26:00.068Z,97.78
2022-08-26T18:28:29.508Z,96.19
2022-08-26T18:31:00.429Z,94.37
2022-08-26T18:33:28.414Z,92.25
2022-08-26T18:35:56.323Z,92.42
2022-08-26T18:38:24.236Z,91.62
2022-08-26T18:40:56.365Z,91.80
2022-08-26T18:43:24.270Z,94.11
2022-08-26T18:46:04.297Z,92.97
2022-08-26T18:48:32.251Z,94.47
2022-08-26T18:51:00.401Z,94.12
2022-08-26T18:53:29.100Z,93.20
2022-08-26T18:55:57.341Z,92.87
2022-08-26T18:58:25.537Z,93.33
2022-08-26T19:00:53.922Z,92.20
2022-08-26T19:03:23.177Z,92.98
2022-08-26T19:05:51.119Z,92.70
2022-08-26T19:08:18.984Z,93.21
2022-08-26T19:10:46.837Z,93.07
2022-08-26T19:13:16.458Z,94.40
2022-08-26T19:15:46.441Z,93.84
2022-08-26T19:18:15.869Z,93.78
2022-08-26T19:20:47.842Z,93.36
2022-08-26T19:23:33.670Z,94.99
2022-08-26T19:26:04.513Z,94.00
2022-08-26T19:28:32.709Z,93.96
2022-08-26T19:31:00.886Z,93.00
2022-08-26T19:33:29.288Z,93.00
2022-08-26T19:35:58.768Z,94.01
2022-08-26T19:38:27.763Z,94.30
2022-08-26T19:40:55.761Z,96.95
2022-08-26T19:43:23.751Z,97.99
2022-08-26T19:45:51.746Z,98.85
2022-08-26T19:48:19.666Z,98.08
2022-08-26T19:50:47.617Z,98.67
2022-08-26T19:53:16.894Z,99.34
2022-08-26T19:55:44.873Z,100.00
2022-08-26T19:58:12.764Z,100.00
2022-08-26T20:00:42.363Z,100.00
2022-08-26T20:03:10.610Z,100.00
2022-08-26T20:05:41.393Z,100.00
2022-08-26T20:08:09.524Z,100.00
2022-08-26T20:10:51.773Z,100.00
2022-08-26T20:13:19.724Z,100.00
2022-08-26T20:15:47.870Z,100.00
2022-08-26T20:18:29.772Z,100.00
2022-08-26T20:21:16.086Z,100.00
2022-08-26T20:23:44.362Z,97.85
2022-08-26T20:26:13.629Z,96.85
2022-08-26T20:28:41.584Z,98.01
2022-08-26T20:31:10.722Z,95.66
2022-08-26T20:33:46.213Z,94.58
2022-08-26T20:36:15.377Z,93.48
2022-08-26T20:38:43.391Z,92.88
2022-08-26T20:41:11.712Z,93.52
2022-08-26T20:43:42.701Z,93.85
2022-08-26T20:46:16.916Z,95.04
2022-08-26T20:48:46.876Z,95.36
2022-08-26T20:51:15.287Z,95.16
2022-08-26T20:53:44.222Z,94.17
2022-08-26T20:56:14.919Z,94.44
2022-08-26T20:58:44.301Z,95.38
2022-08-26T21:01:19.324Z,95.82
2022-08-26T21:03:47.935Z,95.95
2022-08-26T21:06:15.944Z,94.83
2022-08-26T21:08:44.359Z,93.95
2022-08-26T21:11:13.153Z,93.78
2022-08-26T21:14:01.674Z,93.80
2022-08-26T21:16:30.773Z,95.30
2022-08-26T21:19:00.347Z,94.22
2022-08-26T21:21:29.186Z,95.16
2022-08-26T21:23:57.649Z,94.16
2022-08-26T21:26:25.893Z,93.03
2022-08-26T21:28:54.169Z,92.97
2022-08-26T21:31:23.837Z,92.62
2022-08-26T21:33:53.721Z,93.03
2022-08-26T21:36:21.733Z,93.25
2022-08-26T21:38:49.687Z,94.26
2022-08-26T21:41:23.084Z,93.75
2022-08-26T21:43:53.582Z,92.98
2022-08-26T21:46:23.799Z,93.40
2022-08-26T21:48:56.336Z,95.86
2022-08-26T21:51:26.640Z,96.62
2022-08-26T21:53:56.695Z,98.28
2022-08-26T21:56:27.283Z,96.51
2022-08-26T21:58:56.387Z,97.10
2022-08-26T22:01:27.851Z,95.50
2022-08-26T22:03:57.414Z,96.60
2022-08-26T22:06:28.701Z,97.16
2022-08-26T22:08:57.397Z,95.96
2022-08-26T22:11:26.084Z,97.49
2022-08-26T22:13:56.906Z,97.47
2022-08-26T22:16:26.849Z,98.79
2022-08-26T22:18:55.141Z,99.42
2022-08-26T22:21:26.887Z,98.66
2022-08-26T22:23:57.964Z,98.37
2022-08-26T22:26:28.727Z,96.71
2022-08-26T22:28:58.770Z,97.67
2022-08-26T22:31:37.755Z,98.90
2022-08-26T22:34:08.730Z,98.49
2022-08-26T22:36:43.835Z,97.30
2022-08-26T22:39:13.002Z,95.35
2022-08-26T22:41:41.263Z,94.11
2022-08-26T22:44:09.176Z,93.69
2022-08-26T22:46:38.621Z,96.27
2022-08-26T22:49:06.857Z,97.66
2022-08-26T22:51:34.765Z,95.72
2022-08-26T22:54:04.071Z,99.77
2022-08-26T22:56:31.934Z,100.00
2022-08-26T22:58:59.849Z,100.00
2022-08-26T23:01:27.926Z,100.00
2022-08-26T23:03:55.921Z,100.00
2022-08-26T23:06:24.168Z,100.00
2022-08-26T23:08:53.097Z,98.94
2022-08-26T23:11:22.828Z,100.00
2022-08-26T23:13:50.801Z,99.07
2022-08-26T23:16:18.856Z,97.83
2022-08-26T23:18:47.052Z,96.72
2022-08-26T23:21:15.185Z,97.08
2022-08-26T23:23:44.272Z,96.29
2022-08-26T23:26:16.777Z,96.67
2022-08-26T23:28:47.061Z,96.78
2022-08-26T23:31:15.369Z,99.41
2022-08-26T23:34:00.977Z,97.65
2022-08-26T23:36:30.992Z,97.37
2022-08-26T23:39:02.666Z,97.52
2022-08-26T23:41:30.595Z,98.26
2022-08-26T23:44:03.380Z,99.17
2022-08-26T23:46:32.152Z,98.93
2022-08-26T23:49:00.369Z,97.21
2022-08-26T23:51:46.123Z,98.29
2022-08-26T23:54:16.493Z,99.30
2022-08-26T23:56:44.781Z,100.00
2022-08-26T23:59:14.116Z,99.48
